Portada
METAR-TAF:

METAR-TAF

Aeroports :

Naxçıvan, Azerbaidjan

latitud: 39-11-19N, longitud: 045-27-30E, altitud: 873 m

Observació

L'informe es va fer fa 10 minuts, a les 22:30 UTC
Vent 6 kt del Nord
Temperatura 0°C
Humitat 80%
Pressió 1024 hPa
Visibilitat 10 km o més
Núvols disperses a una alçada de 10000 ft

METAR: UBBN 132230Z 01006KT 9999 SCT100 00/M03 Q1024 R14R/CLRD// NOSIG RMK MT OP QFE692

Hora: 02:40 (22:40 UTC)

Pronòstic

L'informe es va fer fa 5 hores i 36 minuts, a les 17:04 UTC
Pronòstic vàlid del 13 a les 18 UTC al 14 a les 18 UTC
Vent 4 kt amb direcció variable
Visibilitat: 8000 m
Escasses núvols a una alçada de 5000 ft
Cel ennuvolat a una alçada de 10000 ft
Temporalment
l' 13 a les 18 UTC al 14 a les 04 UTC
Vent 8 kt del Nord/Nord-Est
Temporalment
l' 14 a les 04 UTC al 14 a les 14 UTC
Vent 8 kt del Sud-Oest

TAF: UBBN 131704Z 1318/1418 VRB04KT 8000 FEW050 BKN100 TX13/1412Z TNM02/1402Z TEMPO 1318/1404 02008KT TEMPO 1404/1414 23008KT

Observacions i pronòstics meteorològics de més de 4000 aeroports (METAR i TAF).

Les estacions disponibles són els punts grocs i vermells al mapa.

Posi el ratolí al punt desitjat per veure el nom de l'estació.

Feu clic per veure les observacions i els pronòstics meteorològics.

Per canviar el mapa: feu clic els botons verds amb una creu de color negre per apropar; al botó verd amb un guió per allunyar la imatge; o en les fletxes verdes per a mapes adjacents.


METAR-TAF: